Time;durP1;ratioP1;P1;durP2;ratioP2;P2;SDS_P1;SDS_P2;PMS_P1;PMS_P2;Temp;Humidity;BMP_temperature;BMP_pressure;BME280_temperature;BME280_humidity;BME280_pressure;Samples;Min_cycle;Max_cycle;Signal;HPM_P1;HPM_P2
2021/11/10 00:02:11;;;;;;;3.40;2.10;;;;;;;26.27;29.69;97347.16;5066299;28;20480;-33
2021/11/10 00:04:37;;;;;;;4.65;2.00;;;;;;;26.26;29.58;97341.03;5069505;28;20050;-34
2021/11/10 00:07:02;;;;;;;3.15;1.95;;;;;;;26.25;29.58;97331.44;5068827;28;20671;-30
2021/11/10 00:09:28;;;;;;;4.15;1.92;;;;;;;26.25;29.67;97323.56;5068256;28;20729;-34
2021/11/10 00:11:54;;;;;;;2.78;2.03;;;;;;;26.25;29.76;97326.19;5066445;28;20031;-33
2021/11/10 00:14:19;;;;;;;6.95;2.97;;;;;;;26.24;29.21;97332.38;5070437;28;20126;-34
2021/11/10 00:16:45;;;;;;;4.93;2.50;;;;;;;26.22;29.26;97340.31;5069436;28;20143;-33
2021/11/10 00:19:10;;;;;;;2.45;1.98;;;;;;;26.22;29.34;97344.69;5065394;28;20028;-31
2021/11/10 00:21:36;;;;;;;4.95;2.10;;;;;;;26.21;29.48;97345.63;5063491;28;20030;-33
2021/11/10 00:24:02;;;;;;;5.15;2.15;;;;;;;26.18;29.45;97351.03;5062596;28;20444;-34
2021/11/10 00:26:27;;;;;;;4.25;2.03;;;;;;;26.20;29.55;97357.91;5061993;28;20032;-34
2021/11/10 00:28:53;;;;;;;3.95;2.00;;;;;;;26.20;29.55;97363.16;5064783;28;20535;-35
2021/11/10 00:31:18;;;;;;;3.63;2.38;;;;;;;26.21;29.57;97353.50;5070228;28;20029;-34
2021/11/10 00:33:44;;;;;;;3.85;2.00;;;;;;;26.20;29.71;97357.91;5068863;28;20033;-36
2021/11/10 00:36:09;;;;;;;3.20;2.00;;;;;;;26.20;29.66;97355.28;5067151;28;20036;-33
2021/11/10 00:38:35;;;;;;;2.22;1.73;;;;;;;26.20;29.74;97355.28;5068926;28;20035;-33
2021/11/10 00:41:03;;;;;;;2.67;1.92;;;;;;;26.14;29.77;97344.19;5065095;28;20858;-33
2021/11/10 00:43:28;;;;;;;3.00;1.77;;;;;;;26.20;29.70;97346.56;5062299;28;20491;-32
2021/11/10 00:45:53;;;;;;;2.85;1.70;;;;;;;26.19;29.45;97329.06;5067985;28;20035;-34
2021/11/10 00:48:19;;;;;;;5.47;2.05;;;;;;;26.19;29.49;97321.19;5069651;28;20281;-32
2021/11/10 00:50:44;;;;;;;4.45;2.10;;;;;;;26.19;29.57;97335.19;5073742;28;20495;-35
2021/11/10 00:53:10;;;;;;;3.90;1.83;;;;;;;26.19;29.66;97334.31;5072626;28;20035;-34
2021/11/10 00:55:36;;;;;;;3.72;1.77;;;;;;;26.17;29.54;97331.78;5071280;28;20020;-33
2021/11/10 00:58:02;;;;;;;4.00;2.05;;;;;;;26.18;29.54;97338.75;5071801;28;20028;-34
2021/11/10 01:00:28;;;;;;;3.03;1.98;;;;;;;26.15;29.51;97338.00;5070298;28;20110;-35
2021/11/10 01:02:53;;;;;;;2.22;1.80;;;;;;;26.17;29.70;97336.19;5071158;28;20028;-34
2021/11/10 01:05:19;;;;;;;2.80;1.60;;;;;;;26.13;29.60;97334.63;5073138;28;20094;-32
2021/11/10 01:07:44;;;;;;;2.20;1.75;;;;;;;26.16;29.70;97351.09;5074177;28;20024;-32
2021/11/10 01:10:11;;;;;;;3.88;1.65;;;;;;;26.16;29.76;97351.09;5069234;28;20024;-33
2021/11/10 01:12:36;;;;;;;2.35;1.90;;;;;;;26.16;29.62;97360.75;5070327;28;20021;-33
2021/11/10 01:15:02;;;;;;;2.97;1.80;;;;;;;26.16;29.66;97361.59;5070962;28;20051;-33
2021/11/10 01:17:28;;;;;;;2.70;1.85;;;;;;;26.15;29.76;97370.41;5068920;28;20836;-34
2021/11/10 01:19:53;;;;;;;2.50;1.70;;;;;;;26.17;29.58;97362.47;5065703;28;20472;-31
2021/11/10 01:22:18;;;;;;;2.40;1.60;;;;;;;26.15;29.55;97353.78;5069287;28;20028;-33
2021/11/10 01:24:44;;;;;;;2.70;1.80;;;;;;;26.15;29.36;97348.53;5070052;28;20028;-33
2021/11/10 01:27:10;;;;;;;4.25;1.77;;;;;;;26.15;29.71;97327.50;5071823;28;20051;-34
2021/11/10 01:29:36;;;;;;;4.30;1.55;;;;;;;26.15;29.53;97332.75;5068488;28;20031;-34
2021/11/10 01:32:01;;;;;;;2.05;1.70;;;;;;;26.14;29.45;97331.06;5069977;28;20040;-32
2021/11/10 01:34:27;;;;;;;2.83;1.90;;;;;;;26.13;29.64;97332.00;5086424;28;20158;-35
2021/11/10 01:36:52;;;;;;;3.28;1.98;;;;;;;26.13;29.72;97342.50;5065371;28;20043;-32
2021/11/10 01:39:18;;;;;;;2.08;1.58;;;;;;;26.12;29.65;97327.66;5070303;28;20028;-34
2021/11/10 01:41:47;;;;;;;3.33;1.73;;;;;;;26.12;29.46;97322.41;5068017;28;22110;-35
2021/11/10 01:44:19;;;;;;;2.90;1.70;;;;;;;26.12;29.66;97317.16;5064856;28;20032;-35
2021/11/10 01:46:45;;;;;;;4.15;1.60;;;;;;;26.12;29.69;97304.03;5066520;28;20663;-35
2021/11/10 01:49:10;;;;;;;2.90;1.90;;;;;;;26.10;29.56;97304.94;5069966;28;20031;-29
2021/11/10 01:51:48;;;;;;;2.88;1.70;;;;;;;26.10;29.51;97289.16;5069471;28;20031;-34
2021/11/10 01:54:14;;;;;;;3.17;1.73;;;;;;;26.10;29.53;97288.34;5071714;28;20503;-34
2021/11/10 01:56:40;;;;;;;2.60;1.73;;;;;;;26.09;29.59;97276.97;5071822;28;20043;-32
2021/11/10 01:59:05;;;;;;;3.60;1.70;;;;;;;26.08;29.58;97267.41;5066979;28;20039;-30
2021/11/10 02:01:31;;;;;;;1.90;1.50;;;;;;;26.08;29.58;97263.91;5068881;28;20035;-32
2021/11/10 02:03:56;;;;;;;2.22;1.80;;;;;;;26.08;29.46;97264.78;5068825;28;20031;-34
2021/11/10 02:06:22;;;;;;;2.65;1.77;;;;;;;26.07;29.63;97259.59;5068594;28;20028;-33
2021/11/10 02:08:47;;;;;;;2.80;1.65;;;;;;;26.07;29.53;97265.69;5069951;28;20024;-32
2021/11/10 02:11:13;;;;;;;2.83;2.17;;;;;;;26.07;29.48;97268.31;5066321;28;20032;-32
2021/11/10 02:13:40;;;;;;;4.00;1.67;;;;;;;26.07;29.66;97264.84;5069187;28;22570;-32
2021/11/10 02:16:05;;;;;;;2.40;1.80;;;;;;;26.05;29.56;97257.03;5068048;28;20069;-28
2021/11/10 02:18:31;;;;;;;1.83;1.50;;;;;;;26.06;29.54;97266.63;5071039;28;20039;-32
2021/11/10 02:20:56;;;;;;;2.58;1.60;;;;;;;26.05;29.55;97262.28;5069321;28;20158;-33
2021/11/10 02:23:21;;;;;;;3.28;1.70;;;;;;;26.04;29.46;97255.31;5066758;28;20032;-34
2021/11/10 02:25:47;;;;;;;3.33;1.90;;;;;;;26.05;29.51;97246.53;5071049;28;20086;-32
2021/11/10 02:28:12;;;;;;;2.58;1.90;;;;;;;26.05;29.65;97243.88;5067989;28;20090;-32
2021/11/10 02:30:38;;;;;;;2.05;1.60;;;;;;;26.04;29.63;97252.69;5084424;28;20032;-33
2021/11/10 02:33:04;;;;;;;2.38;1.75;;;;;;;26.05;29.72;97246.53;5071747;28;20029;-35
2021/11/10 02:35:30;;;;;;;3.97;1.67;;;;;;;26.04;29.47;97244.81;5070083;28;20020;-32
2021/11/10 02:37:58;;;;;;;2.35;1.60;;;;;;;26.03;29.67;97244.88;5068046;28;20028;-31
2021/11/10 02:40:24;;;;;;;2.60;1.80;;;;;;;26.04;29.56;97246.59;5068134;28;20024;-34
2021/11/10 02:42:50;;;;;;;4.05;1.70;;;;;;;26.04;29.61;97249.22;5071611;28;20036;-33
2021/11/10 02:45:15;;;;;;;2.50;1.40;;;;;;;26.04;29.56;97252.69;5067355;28;20909;-31
2021/11/10 02:47:41;;;;;;;2.50;1.65;;;;;;;26.03;29.56;97245.75;5070069;28;20032;-33
2021/11/10 02:50:07;;;;;;;2.50;1.80;;;;;;;26.02;29.50;97249.31;5071862;28;20032;-33
2021/11/10 02:52:32;;;;;;;2.38;1.77;;;;;;;26.02;29.47;97254.56;5070060;28;20035;-35
2021/11/10 02:54:58;;;;;;;2.25;1.80;;;;;;;26.02;29.42;97262.44;5068522;28;20036;-32
2021/11/10 02:57:25;;;;;;;2.08;1.75;;;;;;;26.02;29.42;97253.69;5068204;28;20027;-33
2021/11/10 02:59:50;;;;;;;2.00;1.65;;;;;;;26.01;29.44;97255.47;5066780;28;20589;-36
2021/11/10 03:02:22;;;;;;;2.17;1.50;;;;;;;26.00;29.51;97256.41;5068581;28;20023;-30
2021/11/10 03:04:48;;;;;;;1.95;1.50;;;;;;;26.00;29.60;97266.91;5070377;28;20386;-31
2021/11/10 03:07:13;;;;;;;2.65;1.63;;;;;;;26.00;29.62;97276.56;5069817;28;20024;-31
2021/11/10 03:09:39;;;;;;;2.38;1.60;;;;;;;26.00;29.47;97261.66;5069602;28;20118;-31
2021/11/10 03:12:05;;;;;;;2.50;1.55;;;;;;;25.98;29.42;97252.13;5084646;28;20050;-29
2021/11/10 03:14:32;;;;;;;2.53;1.70;;;;;;;25.99;29.64;97252.06;5068124;28;20085;-34
2021/11/10 03:16:58;;;;;;;2.47;1.40;;;;;;;25.98;29.52;97252.13;5063009;28;20115;-30
2021/11/10 03:19:23;;;;;;;2.25;1.50;;;;;;;25.98;29.66;97244.25;5068221;28;20043;-30
2021/11/10 03:21:49;;;;;;;4.60;1.85;;;;;;;25.96;29.57;97239.94;5067025;28;20031;-34
2021/11/10 03:24:15;;;;;;;3.65;1.70;;;;;;;25.97;29.50;97232.91;5066300;28;20043;-33
2021/11/10 03:26:40;;;;;;;7.10;1.98;;;;;;;25.96;29.57;97234.69;5065863;28;20033;-34
2021/11/10 03:29:06;;;;;;;2.40;1.48;;;;;;;25.96;29.58;97236.44;5068994;28;20058;-33
2021/11/10 03:31:32;;;;;;;2.35;1.58;;;;;;;25.96;29.62;97244.31;5070416;28;20445;-35
2021/11/10 03:33:58;;;;;;;2.38;1.52;;;;;;;25.95;29.57;97253.13;5069063;28;20524;-34
2021/11/10 03:36:24;;;;;;;1.70;1.33;;;;;;;25.96;29.42;97250.44;5065860;28;20035;-33
2021/11/10 03:38:49;;;;;;;3.95;2.00;;;;;;;25.96;29.51;97254.84;5068945;28;20032;-32
2021/11/10 03:41:15;;;;;;;2.90;1.63;;;;;;;25.94;29.63;97257.53;5066526;28;20035;-32
2021/11/10 03:43:40;;;;;;;2.80;1.38;;;;;;;25.94;29.52;97252.28;5068046;28;20028;-32
2021/11/10 03:46:05;;;;;;;2.47;1.60;;;;;;;25.94;29.53;97252.28;5067319;28;20503;-35
2021/11/10 03:48:31;;;;;;;1.90;1.30;;;;;;;25.94;29.64;97259.31;5069022;28;20036;-33
2021/11/10 03:50:57;;;;;;;4.63;1.63;;;;;;;25.94;29.44;97267.19;5070139;28;20021;-35
2021/11/10 03:53:22;;;;;;;1.58;1.38;;;;;;;25.92;29.41;97263.78;5067788;28;20024;-33
2021/11/10 03:55:47;;;;;;;2.45;1.55;;;;;;;25.93;29.64;97266.34;5067506;28;20032;-32
2021/11/10 03:58:13;;;;;;;2.25;1.50;;;;;;;25.92;29.67;97269.88;5067243;28;20021;-33
2021/11/10 04:00:39;;;;;;;2.33;1.50;;;;;;;25.92;29.65;97274.28;5070438;28;20028;-30
2021/11/10 04:03:04;;;;;;;2.47;1.75;;;;;;;25.92;29.78;97264.63;5067810;28;20021;-32
2021/11/10 04:05:29;;;;;;;2.40;1.38;;;;;;;25.92;29.73;97263.78;5050342;28;20037;-33
2021/11/10 04:07:55;;;;;;;2.13;1.48;;;;;;;25.91;29.49;97247.19;5067686;28;20028;-32
2021/11/10 04:10:21;;;;;;;2.45;1.38;;;;;;;25.91;29.47;97243.69;5070503;28;20028;-34
2021/11/10 04:12:46;;;;;;;2.10;1.50;;;;;;;25.91;29.57;97238.44;5068845;28;20024;-35
2021/11/10 04:15:12;;;;;;;1.30;1.20;;;;;;;25.90;29.48;97240.22;5068574;28;20031;-33
2021/11/10 04:17:37;;;;;;;2.13;1.38;;;;;;;25.90;29.50;97250.72;5067367;28;20035;-33
2021/11/10 04:20:03;;;;;;;2.90;1.50;;;;;;;25.90;29.53;97255.13;5069267;28;20028;-33
2021/11/10 04:22:29;;;;;;;2.08;1.50;;;;;;;25.89;29.49;97258.69;5066718;28;20028;-36
2021/11/10 04:24:54;;;;;;;2.95;1.70;;;;;;;25.89;29.50;97269.19;5069901;28;20105;-34
2021/11/10 04:27:20;;;;;;;6.13;2.60;;;;;;;25.88;29.04;97262.22;5071463;28;20484;-34
2021/11/10 04:29:46;;;;;;;3.88;1.77;;;;;;;25.86;28.91;97264.06;5071247;28;20127;-35
2021/11/10 04:32:11;;;;;;;2.92;1.98;;;;;;;25.85;29.26;97259.75;5072518;28;20085;-32
2021/11/10 04:34:37;;;;;;;2.58;1.60;;;;;;;25.83;29.27;97263.25;5072641;28;20032;-36
2021/11/10 04:37:03;;;;;;;3.00;1.83;;;;;;;25.82;29.46;97266.00;5071778;28;20039;-33
2021/11/10 04:39:28;;;;;;;3.05;1.50;;;;;;;25.83;29.43;97270.31;5071741;28;20031;-32
2021/11/10 04:41:54;;;;;;;1.60;1.33;;;;;;;25.82;29.53;97279.94;5065142;28;20024;-32
2021/11/10 04:44:19;;;;;;;1.92;1.63;;;;;;;25.82;29.43;97285.19;5065607;28;20028;-34
2021/11/10 04:46:45;;;;;;;2.22;1.60;;;;;;;25.82;29.56;97279.13;5070164;28;20411;-34
2021/11/10 04:49:10;;;;;;;1.73;1.33;;;;;;;25.81;29.48;97270.38;5071268;28;20106;-34
2021/11/10 04:51:36;;;;;;;2.63;1.55;;;;;;;25.82;29.49;97269.44;5072136;28;20029;-34
2021/11/10 04:54:07;;;;;;;1.98;1.40;;;;;;;25.81;29.72;97244.13;5072849;28;20024;-33
2021/11/10 04:56:34;;;;;;;1.67;1.27;;;;;;;25.82;29.52;97242.38;5071901;28;20119;-31
2021/11/10 04:58:59;;;;;;;2.20;1.65;;;;;;;25.80;29.60;97239.81;5071775;28;20479;-33
2021/11/10 05:01:27;;;;;;;2.38;1.50;;;;;;;25.81;29.53;97231.00;5072365;28;20039;-33
2021/11/10 05:03:53;;;;;;;2.05;1.20;;;;;;;25.81;29.49;97231.00;5074797;28;20795;-34
2021/11/10 05:06:19;;;;;;;1.70;1.33;;;;;;;25.80;29.59;97234.56;5071296;28;20037;-32
2021/11/10 05:08:45;;;;;;;2.83;1.60;;;;;;;25.80;29.72;97237.19;5074097;28;20033;-33
2021/11/10 05:11:11;;;;;;;2.88;1.55;;;;;;;25.80;29.61;97238.94;5071181;28;20024;-32
2021/11/10 05:13:36;;;;;;;1.38;1.23;;;;;;;25.80;29.73;97241.56;5067910;28;20183;-34
2021/11/10 05:16:02;;;;;;;1.60;1.30;;;;;;;25.80;29.65;97241.56;5066679;28;20924;-36
2021/11/10 05:18:27;;;;;;;1.85;1.30;;;;;;;25.79;29.49;97238.09;5067951;28;20028;-33
2021/11/10 05:20:52;;;;;;;2.28;1.30;;;;;;;25.79;29.56;97245.97;5070980;28;20028;-34
2021/11/10 05:23:18;;;;;;;2.03;1.23;;;;;;;25.79;29.52;97243.34;5071144;28;20031;-32
2021/11/10 05:25:43;;;;;;;1.92;1.50;;;;;;;25.78;29.65;97257.38;5068961;28;20503;-34
2021/11/10 05:28:09;;;;;;;1.92;1.38;;;;;;;25.79;29.63;97261.72;5068789;28;20036;-33
2021/11/10 05:30:36;;;;;;;2.47;1.40;;;;;;;25.78;29.56;97261.81;5072549;28;20237;-33
2021/11/10 05:33:02;;;;;;;1.45;1.25;;;;;;;25.78;29.71;97262.63;5070168;28;20028;-32
2021/11/10 05:35:28;;;;;;;2.67;1.45;;;;;;;25.79;29.58;97274.00;5070618;28;20047;-30
2021/11/10 05:37:53;;;;;;;2.22;1.30;;;;;;;25.78;29.65;97273.13;5086235;28;20633;-32
2021/11/10 05:40:19;;;;;;;1.88;1.40;;;;;;;25.78;29.50;97274.94;5069986;28;20074;-33
2021/11/10 05:42:44;;;;;;;2.10;1.40;;;;;;;25.78;29.55;97273.13;5071208;28;20035;-33
2021/11/10 05:45:09;;;;;;;2.33;1.60;;;;;;;25.78;29.58;97273.13;5070094;28;20027;-33
2021/11/10 05:47:35;;;;;;;2.45;1.45;;;;;;;25.78;29.49;97272.31;5066864;28;20070;-33
2021/11/10 05:50:01;;;;;;;3.08;1.50;;;;;;;25.77;29.66;97268.81;5071715;28;20077;-34
2021/11/10 05:52:26;;;;;;;2.47;1.60;;;;;;;25.77;29.67;97266.19;5069623;28;20039;-32
2021/11/10 05:54:53;;;;;;;3.25;2.30;;;;;;;25.73;29.28;97259.38;5071183;28;20017;-34
2021/11/10 05:57:18;;;;;;;5.47;1.80;;;;;;;25.75;29.34;97260.16;5066139;28;20043;-32
2021/11/10 05:59:44;;;;;;;2.53;1.27;;;;;;;25.75;29.31;97252.28;5064785;28;20544;-33
2021/11/10 06:02:10;;;;;;;1.98;1.65;;;;;;;25.73;29.34;97243.63;5062249;28;20028;-31
2021/11/10 06:04:36;;;;;;;3.53;1.52;;;;;;;25.74;29.57;97239.22;5046534;28;20135;-32
2021/11/10 06:07:01;;;;;;;2.72;1.20;;;;;;;25.73;29.65;97238.38;5046664;28;20809;-34
2021/11/10 06:09:27;;;;;;;8.82;2.40;;;;;;;25.73;29.23;97248.03;5070723;28;20025;-33
2021/11/10 06:11:52;;;;;;;9.40;3.05;;;;;;;25.69;28.56;97245.53;5065597;28;20043;-33
2021/11/10 06:14:18;;;;;;;4.85;1.90;;;;;;;25.68;28.96;97246.47;5064483;28;20027;-32
2021/11/10 06:16:43;;;;;;;10.07;3.80;;;;;;;25.65;27.94;97256.22;5066558;28;22421;-34
2021/11/10 06:19:08;;;;;;;7.03;3.63;;;;;;;25.61;26.93;97255.53;5062933;28;21755;-31
2021/11/10 06:21:34;;;;;;;7.50;4.07;;;;;;;25.55;26.32;97246.13;5066582;28;20012;-33
2021/11/10 06:23:59;;;;;;;7.85;4.30;;;;;;;25.50;26.29;97242.00;5064692;28;20109;-34
2021/11/10 06:26:25;;;;;;;8.07;5.07;;;;;;;25.45;26.33;97248.31;5065026;28;20043;-32
2021/11/10 06:28:50;;;;;;;9.77;4.88;;;;;;;25.41;26.04;97244.13;5057305;27;20222;-30
2021/11/10 06:31:15;;;;;;;8.75;4.60;;;;;;;25.37;25.99;97253.06;5066568;28;20469;-30
2021/11/10 06:33:41;;;;;;;7.13;3.72;;;;;;;25.35;26.28;97269.78;5067489;28;22180;-32
2021/11/10 06:36:06;;;;;;;5.75;3.75;;;;;;;25.31;26.32;97267.28;5062781;28;20101;-32
2021/11/10 06:38:32;;;;;;;7.93;4.22;;;;;;;25.29;26.24;97261.25;5062426;28;20463;-32
2021/11/10 06:40:57;;;;;;;7.07;3.75;;;;;;;25.28;26.21;97258.72;5065441;28;20086;-32
2021/11/10 06:43:25;;;;;;;6.32;3.70;;;;;;;25.25;26.52;97249.19;5064553;28;20034;-32
2021/11/10 06:45:50;;;;;;;9.27;3.55;;;;;;;25.25;26.46;97248.34;5064962;28;20027;-32
2021/11/10 06:48:16;;;;;;;6.10;3.30;;;;;;;25.22;26.33;97244.09;5062067;28;20032;-31
2021/11/10 06:50:41;;;;;;;7.90;3.35;;;;;;;25.22;26.53;97249.34;5062772;28;20028;-32
2021/11/10 06:53:08;;;;;;;7.15;3.65;;;;;;;25.20;26.73;97240.66;5062729;28;20241;-32
2021/11/10 06:55:33;;;;;;;6.65;2.95;;;;;;;25.21;26.86;97262.50;5066202;28;20395;-30
2021/11/10 06:57:59;;;;;;;4.55;2.78;;;;;;;25.20;27.34;97269.50;5066726;28;20031;-33
2021/11/10 07:00:24;;;;;;;6.18;2.70;;;;;;;25.21;27.65;97268.63;5068069;28;20098;-34
2021/11/10 07:02:49;;;;;;;8.02;2.80;;;;;;;25.22;27.91;97265.06;5068843;28;20024;-33
2021/11/10 07:05:15;;;;;;;4.72;3.03;;;;;;;25.24;28.17;97263.22;5069096;28;20036;-33
2021/11/10 07:07:40;;;;;;;9.90;2.60;;;;;;;25.26;28.32;97281.53;5067430;28;20105;-32
2021/11/10 07:10:06;;;;;;;3.30;2.33;;;;;;;25.27;28.59;97281.47;5064403;28;20024;-38
2021/11/10 07:12:31;;;;;;;4.60;2.42;;;;;;;25.28;28.44;97285.78;5061297;28;20089;-30
2021/11/10 07:14:57;;;;;;;4.55;2.30;;;;;;;25.29;28.69;97284.84;5065465;28;20020;-33
2021/11/10 07:17:23;;;;;;;3.17;2.17;;;;;;;25.30;28.81;97286.59;5058277;28;20485;-29
2021/11/10 07:19:51;;;;;;;4.10;2.30;;;;;;;25.31;28.88;97290.91;5055893;28;20036;-31
2021/11/10 07:22:16;;;;;;;4.60;2.50;;;;;;;25.34;28.90;97292.53;5063456;28;20134;-29
2021/11/10 07:24:42;;;;;;;6.05;2.38;;;;;;;25.36;29.12;97292.47;5061122;28;22107;-33
2021/11/10 07:27:07;;;;;;;11.02;5.60;;;;;;;25.31;24.56;97285.66;5064248;28;20020;-30
2021/11/10 07:29:33;;;;;;;12.05;5.50;;;;;;;25.09;21.20;97280.47;5069131;28;20024;-33
2021/11/10 07:31:58;;;;;;;13.85;7.35;;;;;;;24.83;20.89;97278.91;5061557;28;20036;-32
2021/11/10 07:34:24;;;;;;;16.00;8.50;;;;;;;24.57;21.63;97284.31;5060408;28;21644;-29
2021/11/10 07:36:50;;;;;;;13.50;7.72;;;;;;;24.41;22.79;97284.06;5064196;28;20743;-32
2021/11/10 07:39:15;;;;;;;14.88;7.15;;;;;;;24.31;23.94;97287.94;5065451;28;20028;-35
2021/11/10 07:41:41;;;;;;;10.80;6.00;;;;;;;24.29;24.37;97287.19;5062125;28;20028;-35
2021/11/10 07:44:08;;;;;;;20.48;5.85;;;;;;;24.30;25.42;97297.59;5064862;28;20058;-32
2021/11/10 07:46:34;;;;;;;14.50;5.35;;;;;;;24.34;25.53;97298.31;5062887;28;20397;-35
2021/11/10 07:48:59;;;;;;;14.68;5.25;;;;;;;24.40;25.95;97287.59;5066594;28;20115;-33
2021/11/10 07:51:25;;;;;;;10.50;5.00;;;;;;;24.45;26.11;97285.66;5065276;28;20039;-31
2021/11/10 07:53:50;;;;;;;15.98;4.97;;;;;;;24.49;26.32;97274.13;5065125;28;20468;-31
2021/11/10 07:56:16;;;;;;;38.30;6.80;;;;;;;24.54;26.33;97279.19;5069705;28;20031;-28
2021/11/10 07:58:41;;;;;;;48.20;9.70;;;;;;;24.58;26.76;97288.63;5064767;28;20024;-30
2021/11/10 08:01:07;;;;;;;51.03;11.35;;;;;;;24.64;26.88;97285.75;5070581;28;20056;-33
2021/11/10 08:03:33;;;;;;;40.92;10.32;;;;;;;24.68;26.73;97289.13;5063146;28;20420;-32
2021/11/10 08:05:58;;;;;;;46.75;10.15;;;;;;;24.74;26.93;97291.47;5056709;28;20091;-33
2021/11/10 08:08:24;;;;;;;37.97;8.13;;;;;;;24.78;27.20;97293.06;5075628;28;20826;-31
2021/11/10 08:10:55;;;;;;;26.48;7.32;;;;;;;24.82;27.18;97292.94;5074479;28;20041;-32
2021/11/10 08:13:21;;;;;;;35.50;7.30;;;;;;;24.85;27.04;97298.06;5074731;28;20036;-32
2021/11/10 08:15:46;;;;;;;36.47;8.48;;;;;;;24.92;27.45;97299.53;5072296;28;20543;-34
2021/11/10 08:18:12;;;;;;;26.17;7.30;;;;;;;24.96;27.29;97311.59;5073613;28;20032;-33
2021/11/10 08:20:37;;;;;;;26.23;6.82;;;;;;;24.99;27.30;97311.50;5074713;28;20032;-32
2021/11/10 08:23:03;;;;;;;28.70;6.75;;;;;;;25.02;27.56;97310.50;5071493;28;20036;-33
2021/11/10 08:25:28;;;;;;;21.60;6.47;;;;;;;25.05;27.42;97298.09;5070796;28;20182;-34
2021/11/10 08:27:55;;;;;;;19.67;7.00;;;;;;;25.08;27.49;97301.50;5074552;28;20032;-31
2021/11/10 08:30:21;;;;;;;26.70;6.97;;;;;;;25.12;27.50;97293.47;5069771;28;20025;-33
2021/11/10 08:32:47;;;;;;;20.15;5.88;;;;;;;25.14;27.80;97309.97;5068399;28;20028;-31
2021/11/10 08:35:12;;;;;;;18.35;5.70;;;;;;;25.16;27.84;97320.41;5073047;28;20870;-32
2021/11/10 08:37:38;;;;;;;21.48;6.43;;;;;;;25.20;28.07;97326.38;5072162;28;20024;-34
2021/11/10 08:40:05;;;;;;;20.52;6.22;;;;;;;25.21;27.90;97326.31;5074270;28;20086;-31
2021/11/10 08:42:33;;;;;;;20.08;5.30;;;;;;;25.24;27.82;97315.69;5070274;28;20040;-33
2021/11/10 08:45:15;;;;;;;17.35;5.82;;;;;;;25.26;27.94;97313.88;5073601;28;20157;-32
2021/11/10 08:47:43;;;;;;;19.75;5.35;;;;;;;25.28;28.07;97306.75;5073148;28;20078;-33
2021/11/10 08:50:09;;;;;;;15.75;5.63;;;;;;;25.31;28.14;97301.41;5073093;28;20032;-33
2021/11/10 08:52:35;;;;;;;16.67;5.85;;;;;;;25.34;28.06;97299.53;5076413;28;20086;-33
2021/11/10 08:55:01;;;;;;;17.38;5.25;;;;;;;25.36;28.12;97300.34;5073124;28;20074;-32
2021/11/10 08:57:26;;;;;;;13.40;5.38;;;;;;;25.36;28.08;97314.28;5069827;28;20688;-31
2021/11/10 08:59:51;;;;;;;16.20;4.90;;;;;;;25.39;28.20;97311.56;5073007;28;20046;-32
2021/11/10 09:02:17;;;;;;;11.65;4.72;;;;;;;25.41;28.13;97308.88;5071855;28;20535;-31
2021/11/10 09:04:42;;;;;;;12.95;5.03;;;;;;;25.42;28.17;97315.81;5072929;28;20040;-32
2021/11/10 09:07:08;;;;;;;13.80;4.90;;;;;;;25.43;28.22;97318.38;5072386;28;20028;-35
2021/11/10 09:09:35;;;;;;;12.25;5.30;;;;;;;25.45;28.33;97313.06;5071296;28;20028;-34
2021/11/10 09:12:01;;;;;;;13.20;4.85;;;;;;;25.47;28.41;97311.22;5071865;28;20059;-32
2021/11/10 09:14:26;;;;;;;13.73;5.10;;;;;;;25.49;28.35;97319.88;5072245;28;20060;-32
2021/11/10 09:16:52;;;;;;;12.32;4.97;;;;;;;25.49;28.39;97319.88;5072799;28;20028;-29
2021/11/10 09:19:17;;;;;;;11.23;4.50;;;;;;;25.51;28.34;97307.53;5072780;28;20039;-33
2021/11/10 09:21:43;;;;;;;9.43;4.28;;;;;;;25.52;28.38;97309.22;5073171;28;20967;-32
2021/11/10 09:24:09;;;;;;;12.93;4.25;;;;;;;25.54;28.59;97314.41;5071895;28;20047;-31
2021/11/10 09:26:37;;;;;;;13.50;4.68;;;;;;;25.54;28.61;97310.03;5069709;28;20039;-36
2021/11/10 09:29:02;;;;;;;8.35;3.85;;;;;;;25.56;28.59;97310.00;5071735;28;20024;-32
2021/11/10 09:31:28;;;;;;;11.35;4.20;;;;;;;25.57;28.50;97309.94;5071335;28;20089;-35
2021/11/10 09:34:01;;;;;;;10.85;3.97;;;;;;;25.59;28.72;97309.00;5058617;28;20468;-31
2021/11/10 09:36:26;;;;;;;10.57;4.03;;;;;;;25.61;28.52;97312.41;5071866;28;20713;-33
2021/11/10 09:38:52;;;;;;;9.07;3.70;;;;;;;25.61;28.88;97320.28;5073299;28;20019;-36
2021/11/10 09:41:18;;;;;;;9.35;3.83;;;;;;;25.63;28.63;97318.47;5071212;28;20036;-32
2021/11/10 09:43:44;;;;;;;7.95;3.85;;;;;;;25.63;28.96;97310.59;5072255;28;20108;-33
2021/11/10 09:46:10;;;;;;;10.20;3.95;;;;;;;25.63;28.83;97308.78;5072133;28;20090;-31
2021/11/10 09:48:35;;;;;;;8.45;3.83;;;;;;;25.65;28.83;97303.47;5072678;28;20039;-33
2021/11/10 09:51:01;;;;;;;12.98;3.88;;;;;;;25.67;28.73;97305.13;5069181;28;20066;-32
2021/11/10 09:53:27;;;;;;;7.85;3.60;;;;;;;25.69;28.93;97310.31;5073210;28;20086;-32
2021/11/10 09:55:54;;;;;;;6.88;3.70;;;;;;;25.70;28.87;97312.00;5072871;28;20035;-30
2021/11/10 09:58:20;;;;;;;8.02;3.60;;;;;;;25.71;28.86;97305.84;5071370;28;20995;-32
2021/11/10 10:00:51;;;;;;;8.60;3.67;;;;;;;25.74;28.91;97312.72;5071076;28;20032;-32
2021/11/10 10:03:17;;;;;;;7.35;3.60;;;;;;;25.73;28.96;97301.38;5070851;28;20035;-33
2021/11/10 10:05:44;;;;;;;7.28;3.53;;;;;;;25.75;29.07;97311.81;5071184;28;20056;-33
2021/11/10 10:08:09;;;;;;;8.50;3.10;;;;;;;25.75;29.03;97304.78;5071181;28;20546;-31
2021/11/10 10:10:35;;;;;;;6.45;3.40;;;;;;;25.76;29.15;97295.13;5068307;28;20032;-33
2021/11/10 10:13:01;;;;;;;7.72;3.45;;;;;;;25.77;29.14;97299.44;5072916;28;20028;-32
2021/11/10 10:15:28;;;;;;;6.95;3.40;;;;;;;25.79;29.08;97289.75;5074911;28;20069;-34
2021/11/10 10:17:57;;;;;;;6.38;3.10;;;;;;;25.79;29.11;97289.75;5071358;28;20442;-30
2021/11/10 10:20:22;;;;;;;5.38;2.75;;;;;;;25.79;29.20;97285.34;5072361;28;20024;-34
2021/11/10 10:22:48;;;;;;;8.85;3.22;;;;;;;25.81;29.33;97282.63;5071459;28;20032;-31
2021/11/10 10:25:14;;;;;;;5.38;3.10;;;;;;;25.81;29.28;97283.50;5053784;28;20028;-33
2021/11/10 10:27:39;;;;;;;5.93;3.20;;;;;;;25.82;29.22;97279.94;5072888;28;20032;-35
2021/11/10 10:30:24;;;;;;;7.38;3.13;;;;;;;25.82;29.44;97285.19;5056332;28;20028;-30
2021/11/10 10:32:54;;;;;;;10.15;3.20;;;;;;;25.83;29.49;97279.03;5072621;28;20036;-33
2021/11/10 10:35:37;;;;;;;7.38;2.97;;;;;;;25.84;29.39;97277.25;5071681;28;20127;-35
2021/11/10 10:38:02;;;;;;;7.30;2.60;;;;;;;25.85;29.43;97278.13;5071746;28;20020;-32
2021/11/10 10:40:28;;;;;;;4.13;2.70;;;;;;;25.86;29.54;97269.31;5068920;28;20029;-33
2021/11/10 10:42:54;;;;;;;7.95;3.05;;;;;;;25.86;29.36;97264.06;5071769;28;20073;-31
2021/11/10 10:45:30;;;;;;;5.63;2.50;;;;;;;25.87;29.51;97265.75;5072335;28;20049;-33
2021/11/10 10:47:59;;;;;;;5.78;2.80;;;;;;;25.87;29.55;97261.38;5072413;28;20028;-34
2021/11/10 10:50:33;;;;;;;5.75;2.80;;;;;;;25.88;29.61;97256.97;5070417;28;20059;-32
2021/11/10 10:52:59;;;;;;;5.55;2.88;;;;;;;25.90;29.65;97260.38;5070816;28;20098;-36
2021/11/10 10:55:38;;;;;;;4.50;2.40;;;;;;;25.90;29.69;97261.22;5070269;28;20031;-33
2021/11/10 10:58:06;;;;;;;5.90;2.95;;;;;;;25.91;29.90;97256.81;5072313;28;20034;-31
2021/11/10 11:00:31;;;;;;;5.53;2.60;;;;;;;25.92;29.83;97245.38;5070128;28;20034;-32
2021/11/10 11:03:24;;;;;;;5.85;2.40;;;;;;;25.93;29.92;97245.31;5072153;28;20020;-30
2021/11/10 11:05:49;;;;;;;;;;;;;;;25.95;30.03;97250.50;5067320;28;20246;-32
2021/11/10 11:08:25;;;;;;;4.82;2.80;;;;;;;25.96;29.96;97246.94;5070311;28;19927;-34
2021/11/10 11:10:50;;;;;;;5.80;2.53;;;;;;;25.95;30.08;97253.13;5071438;28;20040;-33
2021/11/10 11:13:23;;;;;;;6.10;2.63;;;;;;;25.96;30.02;97244.31;5072156;28;20024;-32
2021/11/10 11:16:05;;;;;;;4.13;2.47;;;;;;;25.96;30.06;97242.56;5071105;28;20791;-34
2021/11/10 11:18:30;;;;;;;4.32;2.35;;;;;;;25.98;30.23;97233.75;5071056;28;20450;-34
2021/11/10 11:20:55;;;;;;;5.00;2.40;;;;;;;25.99;30.14;97236.31;5069109;28;20063;-36
2021/11/10 11:23:21;;;;;;;4.38;2.50;;;;;;;25.98;30.37;97242.50;5071757;28;20696;-36
2021/11/10 11:25:46;;;;;;;4.32;2.40;;;;;;;26.02;30.28;97238.81;5070041;28;20040;-33
2021/11/10 11:28:15;;;;;;;4.57;2.40;;;;;;;26.03;30.39;97242.25;5068449;28;20024;-31